Time;durP1;ratioP1;P1;durP2;ratioP2;P2;SDS_P1;SDS_P2;PMS_P1;PMS_P2;Temp;Humidity;BMP_temperature;BMP_pressure;BME280_temperature;BME280_humidity;BME280_pressure;Samples;Min_cycle;Max_cycle;Signal;HPM_P1;HPM_P2
2021/03/24 00:00:53;;;;;;;18.43;11.20;;;2.20;99.90;;;;;;5080017;28;20442;-70
2021/03/24 00:03:20;;;;;;;16.10;10.40;;;2.40;99.90;;;;;;5090827;28;20492;-70
2021/03/24 00:05:49;;;;;;;18.50;11.30;;;2.40;99.90;;;;;;5093161;28;20922;-68
2021/03/24 00:08:16;;;;;;;16.10;10.10;;;2.30;99.90;;;;;;5086744;28;20474;-69
2021/03/24 00:10:43;;;;;;;14.97;10.17;;;2.10;99.90;;;;;;5089753;28;20482;-69
2021/03/24 00:13:10;;;;;;;15.77;9.40;;;1.90;99.90;;;;;;5091081;28;20450;-69
2021/03/24 00:15:37;;;;;;;18.07;11.47;;;1.90;99.90;;;;;;5077484;28;20574;-68
2021/03/24 00:18:05;;;;;;;16.20;9.50;;;2.00;99.90;;;;;;5089501;28;20453;-69
2021/03/24 00:20:35;;;;;;;15.00;9.53;;;2.10;99.90;;;;;;5091916;28;20526;-69
2021/03/24 00:23:03;;;;;;;17.83;10.83;;;2.00;99.90;;;;;;5081966;28;20485;-68
2021/03/24 00:25:30;;;;;;;15.23;9.57;;;2.00;99.90;;;;;;5092914;28;20565;-68
2021/03/24 00:27:57;;;;;;;16.93;9.70;;;1.90;99.90;;;;;;5092248;28;20561;-69
2021/03/24 00:30:25;;;;;;;17.10;11.07;;;1.90;99.90;;;;;;5091066;28;20456;-68
2021/03/24 00:32:52;;;;;;;16.03;11.10;;;2.00;99.90;;;;;;5075421;28;20510;-69
2021/03/24 00:35:18;;;;;;;17.87;11.03;;;2.00;99.90;;;;;;5073691;28;20524;-70
2021/03/24 00:37:45;;;;;;;15.70;11.30;;;2.10;99.90;;;;;;5083449;28;20483;-69
2021/03/24 00:40:16;;;;;;;19.50;12.70;;;2.20;99.90;;;;;;5081611;28;20535;-69
2021/03/24 00:42:43;;;;;;;13.83;9.47;;;2.20;99.90;;;;;;5076123;28;20862;-69
2021/03/24 00:45:11;;;;;;;20.60;12.00;;;2.10;99.90;;;;;;5084424;28;20531;-69
2021/03/24 00:47:38;;;;;;;15.57;10.13;;;2.10;99.90;;;;;;5077608;28;20482;-69
2021/03/24 00:50:05;;;;;;;12.93;9.87;;;2.00;99.90;;;;;;5079871;28;20858;-69
2021/03/24 00:52:31;;;;;;;16.47;9.47;;;1.90;99.90;;;;;;5072726;28;20539;-69
2021/03/24 00:54:58;;;;;;;18.83;10.37;;;1.90;99.90;;;;;;5088395;28;20983;-69
2021/03/24 00:57:25;;;;;;;17.57;9.90;;;1.90;99.90;;;;;;5078870;28;20491;-69
2021/03/24 00:59:52;;;;;;;17.13;10.43;;;1.80;99.90;;;;;;5071282;28;20472;-69
2021/03/24 01:02:18;;;;;;;22.50;10.80;;;1.80;99.90;;;;;;5088360;28;20867;-69
2021/03/24 01:04:45;;;;;;;16.57;10.87;;;1.70;99.90;;;;;;5091051;28;20451;-68
2021/03/24 01:07:13;;;;;;;18.80;12.30;;;1.80;99.90;;;;;;5085820;28;20514;-69
2021/03/24 01:09:40;;;;;;;20.80;10.90;;;1.90;99.90;;;;;;5078398;28;20509;-69
2021/03/24 01:12:08;;;;;;;16.07;10.40;;;1.90;99.90;;;;;;5088645;28;20853;-69
2021/03/24 01:14:36;;;;;;;18.33;11.13;;;1.90;99.90;;;;;;5074601;28;20871;-68
2021/03/24 01:17:03;;;;;;;15.40;10.30;;;1.90;99.90;;;;;;5072010;28;21043;-69
2021/03/24 01:19:29;;;;;;;18.60;11.50;;;1.90;99.90;;;;;;5085149;28;20502;-69
2021/03/24 01:21:56;;;;;;;15.17;10.50;;;2.00;99.90;;;;;;5075111;28;20447;-69
2021/03/24 01:24:22;;;;;;;13.77;9.07;;;1.90;99.90;;;;;;5091359;28;20958;-69
2021/03/24 01:26:49;;;;;;;20.03;10.80;;;1.90;99.90;;;;;;5091334;28;21133;-68
2021/03/24 01:29:15;;;;;;;15.43;10.43;;;1.80;99.90;;;;;;5073022;28;20568;-68
2021/03/24 01:31:42;;;;;;;16.93;10.77;;;1.70;99.90;;;;;;5071075;28;20513;-67
2021/03/24 01:34:09;;;;;;;18.13;11.00;;;1.70;99.90;;;;;;5085153;28;20596;-67
2021/03/24 01:36:35;;;;;;;16.93;10.93;;;1.70;99.90;;;;;;5091024;28;20440;-68
2021/03/24 01:39:02;;;;;;;18.30;11.80;;;1.80;99.90;;;;;;5076651;28;20479;-68
2021/03/24 01:41:29;;;;;;;20.53;10.60;;;1.80;99.90;;;;;;5070952;28;20474;-69
2021/03/24 01:43:57;;;;;;;17.07;10.43;;;1.80;99.90;;;;;;5084825;28;20533;-68
2021/03/24 01:46:51;;;;;;;13.93;10.23;;;1.70;99.90;;;;;;5076520;28;20534;-69
2021/03/24 01:49:25;;;;;;;17.03;10.13;;;1.70;99.90;;;;;;5040940;28;20562;-68
2021/03/24 01:51:55;;;;;;;18.10;10.60;;;1.70;99.90;;;;;;5073922;28;20788;-68
2021/03/24 01:54:25;;;;;;;15.37;10.57;;;1.80;99.90;;;;;;5091958;28;20802;-69
2021/03/24 01:56:58;;;;;;;17.57;10.70;;;1.70;99.90;;;;;;5090520;28;20617;-68
2021/03/24 01:59:24;;;;;;;18.07;10.93;;;1.60;99.90;;;;;;5091036;28;20932;-68
2021/03/24 02:01:53;;;;;;;15.10;10.57;;;1.60;99.90;;;;;;5088974;28;20440;-68
2021/03/24 02:04:19;;;;;;;19.07;12.20;;;1.60;99.90;;;;;;5080962;28;20529;-68
2021/03/24 02:06:52;;;;;;;16.17;11.00;;;1.60;99.90;;;;;;5075987;28;20988;-68
2021/03/24 02:09:33;;;;;;;17.53;10.70;;;1.50;99.90;;;;;;5076634;28;20544;-68
2021/03/24 02:12:04;;;;;;;14.67;10.93;;;1.70;99.90;;;;;;5077078;28;20482;-68
2021/03/24 02:14:37;;;;;;;16.07;10.03;;;1.60;99.90;;;;;;5088467;28;20495;-68
2021/03/24 02:17:06;;;;;;;14.63;9.23;;;1.70;99.90;;;;;;5074195;28;20450;-69
2021/03/24 02:19:45;;;;;;;18.40;12.23;;;1.50;99.90;;;;;;5089289;28;20477;-69
2021/03/24 02:22:14;;;;;;;18.60;11.27;;;1.40;99.90;;;;;;5071072;28;20565;-68
2021/03/24 02:24:47;;;;;;;16.37;12.03;;;1.30;99.90;;;;;;5084181;28;20478;-68
2021/03/24 02:27:18;;;;;;;19.07;10.73;;;1.40;99.90;;;;;;5070937;28;20988;-68
2021/03/24 02:29:49;;;;;;;15.30;10.73;;;1.40;99.90;;;;;;5070439;28;20541;-68
2021/03/24 02:32:19;;;;;;;17.40;11.07;;;1.30;99.90;;;;;;5077058;28;20883;-68
2021/03/24 02:34:47;;;;;;;14.63;9.87;;;1.30;99.90;;;;;;5070235;28;20953;-69
2021/03/24 02:37:15;;;;;;;14.97;10.63;;;1.30;99.90;;;;;;5084088;28;20537;-68
2021/03/24 02:39:43;;;;;;;23.70;11.93;;;1.50;99.90;;;;;;5089550;28;20564;-68
2021/03/24 02:42:13;;;;;;;15.80;10.57;;;1.50;99.90;;;;;;5088556;28;20445;-68
2021/03/24 02:44:43;;;;;;;18.53;10.00;;;1.50;99.90;;;;;;5083731;28;20526;-68
2021/03/24 02:47:10;;;;;;;17.47;11.30;;;1.20;99.90;;;;;;5087776;28;20471;-69
2021/03/24 02:49:40;;;;;;;15.20;9.70;;;1.40;99.90;;;;;;5083635;28;20531;-68
2021/03/24 02:52:08;;;;;;;18.87;10.77;;;1.60;99.90;;;;;;5085623;28;20866;-68
2021/03/24 02:54:35;;;;;;;13.93;10.30;;;1.50;99.90;;;;;;5089282;28;20536;-68
2021/03/24 02:57:02;;;;;;;17.33;9.93;;;1.60;99.90;;;;;;5086990;28;20454;-68
2021/03/24 02:59:29;;;;;;;15.33;10.50;;;1.70;99.90;;;;;;5077110;28;20474;-69
2021/03/24 03:02:03;;;;;;;17.80;9.80;;;1.60;99.90;;;;;;5072663;28;20539;-68
2021/03/24 03:04:35;;;;;;;16.87;12.00;;;1.30;99.90;;;;;;5083711;28;20526;-69
2021/03/24 03:07:07;;;;;;;14.17;9.30;;;1.10;99.90;;;;;;5072169;28;20950;-69
2021/03/24 03:09:40;;;;;;;19.30;12.60;;;1.10;99.90;;;;;;5083053;28;20538;-68
2021/03/24 03:12:14;;;;;;;15.93;11.10;;;1.10;99.90;;;;;;5076520;28;20440;-69
2021/03/24 03:14:48;;;;;;;21.33;11.80;;;1.00;99.90;;;;;;5087067;28;20501;-68
2021/03/24 03:17:18;;;;;;;20.07;10.80;;;1.00;99.90;;;;;;5084320;28;20536;-69
2021/03/24 03:19:53;;;;;;;19.70;12.37;;;0.90;99.90;;;;;;5086179;28;20479;-69
2021/03/24 03:22:23;;;;;;;14.93;9.83;;;1.00;99.90;;;;;;5075916;28;20490;-69
2021/03/24 03:24:53;;;;;;;19.10;11.60;;;0.90;99.90;;;;;;5080347;28;20515;-69
2021/03/24 03:27:22;;;;;;;19.43;10.20;;;0.80;99.90;;;;;;5070578;28;20456;-69
2021/03/24 03:29:52;;;;;;;22.30;11.50;;;0.90;99.90;;;;;;5084114;28;20998;-68
2021/03/24 03:32:22;;;;;;;15.30;11.40;;;1.00;99.90;;;;;;5070481;28;20471;-69
2021/03/24 03:34:53;;;;;;;14.70;9.87;;;1.10;99.90;;;;;;5088441;28;20452;-68
2021/03/24 03:37:21;;;;;;;18.47;11.50;;;1.10;99.90;;;;;;5089844;28;20523;-69
2021/03/24 03:39:49;;;;;;;18.17;11.70;;;1.10;99.90;;;;;;5072920;28;20429;-68
2021/03/24 03:42:16;;;;;;;19.07;10.07;;;1.10;99.90;;;;;;5070340;28;20492;-68
2021/03/24 03:44:43;;;;;;;16.57;10.13;;;1.00;99.90;;;;;;5069791;28;20522;-68
2021/03/24 03:47:11;;;;;;;19.37;10.20;;;1.10;99.90;;;;;;5070412;28;20574;-68
2021/03/24 03:49:40;;;;;;;20.17;11.57;;;1.10;99.90;;;;;;5084719;28;20958;-68
2021/03/24 03:52:32;;;;;;;16.97;10.30;;;1.20;99.90;;;;;;5080893;28;20449;-68
2021/03/24 03:55:11;;;;;;;18.23;10.57;;;1.20;99.90;;;;;;5072226;28;20534;-68
2021/03/24 03:57:46;;;;;;;17.80;10.77;;;1.20;99.90;;;;;;5087384;28;20980;-68
2021/03/24 04:00:18;;;;;;;14.93;11.17;;;1.30;99.90;;;;;;5069478;28;20527;-68
2021/03/24 04:02:53;;;;;;;20.50;11.40;;;1.30;99.90;;;;;;5083253;28;20537;-68
2021/03/24 04:05:24;;;;;;;21.77;12.00;;;1.60;99.90;;;;;;5074816;28;20534;-68
2021/03/24 04:07:56;;;;;;;17.63;12.33;;;1.50;99.90;;;;;;5070099;28;20562;-68
2021/03/24 04:10:27;;;;;;;17.40;11.20;;;1.40;99.90;;;;;;5084536;28;20538;-69
2021/03/24 04:12:56;;;;;;;17.90;9.73;;;1.30;99.90;;;;;;5074001;28;20514;-69
2021/03/24 04:15:23;;;;;;;16.83;11.37;;;1.30;99.90;;;;;;5091749;28;20439;-68
2021/03/24 04:17:52;;;;;;;21.90;11.10;;;1.40;99.90;;;;;;5085525;28;20469;-68
2021/03/24 04:20:22;;;;;;;17.70;11.50;;;1.60;99.90;;;;;;5088820;28;20877;-69
2021/03/24 04:22:51;;;;;;;17.13;11.50;;;1.60;99.90;;;;;;5073935;28;20529;-68
2021/03/24 04:25:22;;;;;;;15.80;10.67;;;1.70;99.90;;;;;;5082719;28;20470;-68
2021/03/24 04:27:50;;;;;;;18.00;10.20;;;1.50;99.90;;;;;;5075404;28;20566;-68
2021/03/24 04:30:22;;;;;;;14.23;10.70;;;1.70;99.90;;;;;;5093366;28;20512;-68
2021/03/24 04:32:49;;;;;;;21.13;11.90;;;1.80;99.90;;;;;;5073170;28;20468;-68
2021/03/24 04:35:20;;;;;;;17.90;10.73;;;1.80;99.90;;;;;;5092598;28;20470;-68
2021/03/24 04:37:52;;;;;;;15.13;11.60;;;1.90;99.90;;;;;;5093095;28;20541;-68
2021/03/24 04:40:26;;;;;;;15.97;9.73;;;1.80;99.90;;;;;;5078127;28;20475;-69
2021/03/24 04:42:56;;;;;;;16.43;10.80;;;1.60;99.90;;;;;;5085797;28;20524;-69
2021/03/24 04:45:42;;;;;;;16.13;10.73;;;1.50;99.90;;;;;;5078846;28;20524;-69
2021/03/24 04:48:15;;;;;;;19.03;10.57;;;1.40;99.90;;;;;;5085155;28;20578;-69
2021/03/24 04:50:45;;;;;;;19.10;11.10;;;1.50;99.90;;;;;;5071970;28;21019;-68
2021/03/24 04:53:17;;;;;;;16.40;10.50;;;1.60;99.90;;;;;;5083967;28;20533;-69
2021/03/24 04:55:44;;;;;;;13.73;10.30;;;1.60;99.90;;;;;;5089518;28;20550;-68
2021/03/24 04:58:21;;;;;;;16.60;10.73;;;1.50;99.90;;;;;;5080120;28;20463;-68
2021/03/24 05:00:51;;;;;;;24.37;12.33;;;1.40;99.90;;;;;;5080617;28;20540;-69
2021/03/24 05:03:25;;;;;;;19.50;12.30;;;1.50;99.90;;;;;;5088998;28;20522;-69
2021/03/24 05:05:55;;;;;;;19.70;10.67;;;1.40;99.90;;;;;;5087317;28;21020;-70
2021/03/24 05:08:32;;;;;;;14.70;9.27;;;1.40;99.90;;;;;;5092314;28;20569;-70
2021/03/24 05:11:03;;;;;;;17.63;10.67;;;1.30;99.90;;;;;;5081172;28;20986;-71
2021/03/24 05:13:34;;;;;;;20.00;13.47;;;1.40;99.90;;;;;;5087018;28;20543;-71
2021/03/24 05:16:04;;;;;;;17.20;10.83;;;1.30;99.90;;;;;;5071529;28;20531;-70
2021/03/24 05:18:31;;;;;;;16.30;11.30;;;1.30;99.90;;;;;;5071559;28;20487;-69
2021/03/24 05:21:02;;;;;;;18.83;9.97;;;1.20;99.90;;;;;;5070725;28;20509;-69
2021/03/24 05:23:30;;;;;;;15.73;11.80;;;1.00;99.90;;;;;;5074821;28;20438;-70
2021/03/24 05:26:01;;;;;;;14.07;10.37;;;1.00;99.90;;;;;;5091489;28;20847;-68
2021/03/24 05:28:35;;;;;;;17.63;10.20;;;1.10;99.90;;;;;;5079096;28;20484;-68
2021/03/24 05:31:06;;;;;;;24.43;11.90;;;1.00;99.90;;;;;;5074933;28;20618;-71
2021/03/24 05:33:38;;;;;;;15.77;11.43;;;1.10;99.90;;;;;;5084805;28;20835;-67
2021/03/24 05:36:14;;;;;;;17.63;10.60;;;1.20;99.90;;;;;;5075211;28;20471;-69
2021/03/24 05:38:43;;;;;;;18.33;11.67;;;1.10;99.90;;;;;;5085122;28;20445;-68
2021/03/24 05:41:22;;;;;;;21.13;11.53;;;1.10;99.90;;;;;;5072776;28;20529;-68
2021/03/24 05:44:17;;;;;;;20.90;11.60;;;1.00;99.90;;;;;;5071228;28;20461;-68
2021/03/24 05:47:16;;;;;;;18.00;10.93;;;1.10;99.90;;;;;;5088175;28;20910;-68
2021/03/24 05:49:50;;;;;;;25.33;11.60;;;1.10;99.90;;;;;;5037701;28;20530;-67
2021/03/24 05:52:29;;;;;;;18.20;11.20;;;1.30;99.90;;;;;;5071754;28;20498;-71
2021/03/24 05:55:07;;;;;;;21.90;12.30;;;1.30;99.90;;;;;;5077130;28;20525;-68
2021/03/24 05:57:47;;;;;;;13.40;10.83;;;1.30;99.90;;;;;;5070552;28;20532;-68
2021/03/24 06:00:32;;;;;;;22.53;12.57;;;1.50;99.90;;;;;;5071253;28;20531;-68
2021/03/24 06:03:05;;;;;;;17.57;12.37;;;1.50;99.90;;;;;;5070592;28;20494;-68
2021/03/24 06:05:38;;;;;;;20.40;12.10;;;1.50;99.90;;;;;;5084197;28;20447;-68
2021/03/24 06:08:46;;;;;;;23.50;13.40;;;1.50;99.90;;;;;;5070593;28;20578;-68
2021/03/24 06:11:36;;;;;;;16.53;11.27;;;1.60;99.90;;;;;;5071163;28;20453;-67
2021/03/24 06:14:38;;;;;;;20.50;13.37;;;1.80;99.90;;;;;;5079785;28;20893;-68
2021/03/24 06:17:47;;;;;;;19.27;11.93;;;1.70;99.90;;;;;;5091007;28;20489;-68
2021/03/24 06:20:42;;;;;;;24.13;14.03;;;1.60;99.90;;;;;;5026486;28;20533;-68
2021/03/24 06:23:38;;;;;;;19.03;13.27;;;1.60;99.90;;;;;;5086683;28;21006;-68
2021/03/24 06:26:33;;;;;;;20.17;13.07;;;1.60;99.90;;;;;;5057448;28;20451;-68
2021/03/24 06:29:07;;;;;;;17.73;11.50;;;1.70;99.90;;;;;;5041031;28;20484;-68
2021/03/24 06:31:50;;;;;;;21.07;12.70;;;1.80;99.90;;;;;;5077701;28;20566;-68
2021/03/24 06:34:30;;;;;;;20.90;13.70;;;1.80;99.90;;;;;;5089971;28;20532;-69
2021/03/24 06:37:31;;;;;;;20.27;12.80;;;1.90;99.90;;;;;;5084419;28;20464;-69
2021/03/24 06:40:10;;;;;;;22.33;12.03;;;2.00;99.90;;;;;;5070043;28;20478;-68
2021/03/24 06:42:45;;;;;;;23.70;14.20;;;2.10;99.90;;;;;;5070448;28;20500;-68
2021/03/24 06:45:36;;;;;;;19.57;12.80;;;2.10;99.90;;;;;;5070005;28;20451;-68
2021/03/24 06:48:13;;;;;;;18.77;13.10;;;2.20;99.90;;;;;;5079152;28;20484;-68
2021/03/24 06:51:16;;;;;;;17.93;12.27;;;2.30;99.90;;;;;;5090264;28;20541;-67
2021/03/24 06:54:19;;;;;;;19.67;12.93;;;2.40;99.90;;;;;;5089739;28;20487;-68
2021/03/24 06:57:24;;;;;;;22.80;15.23;;;2.70;99.90;;;;;;5007920;28;20460;-68
2021/03/24 07:00:23;;;;;;;17.47;12.37;;;3.00;99.90;;;;;;5066754;28;20821;-68
2021/03/24 07:03:23;;;;;;;24.93;12.40;;;3.30;99.90;;;;;;5090932;28;20443;-68
2021/03/24 07:06:02;;;;;;;22.60;14.00;;;3.40;99.90;;;;;;5066542;28;20483;-67
2021/03/24 07:08:44;;;;;;;16.80;13.20;;;3.30;99.90;;;;;;5070223;28;20493;-68
2021/03/24 07:11:26;;;;;;;17.23;13.13;;;3.30;99.90;;;;;;5070641;28;20973;-68
2021/03/24 07:14:27;;;;;;;18.90;13.07;;;3.50;99.90;;;;;;5078442;28;20528;-68
2021/03/24 07:17:26;;;;;;;21.30;14.00;;;3.50;99.90;;;;;;5056140;28;20442;-67
2021/03/24 07:20:04;;;;;;;22.17;13.00;;;3.50;99.90;;;;;;5090374;28;20455;-68
2021/03/24 07:22:54;;;;;;;19.60;14.03;;;3.60;99.90;;;;;;5090824;28;20448;-68
2021/03/24 07:25:42;;;;;;;21.13;13.53;;;3.90;99.90;;;;;;5090346;28;20449;-68
2021/03/24 07:28:33;;;;;;;20.97;12.70;;;4.00;99.90;;;;;;5087279;28;20575;-68
2021/03/24 07:31:29;;;;;;;20.77;13.23;;;4.30;56.50;;;;;;5089914;28;20476;-67
2021/03/24 07:34:03;;;;;;;19.67;12.10;;;4.30;1.00;;;;;;5090199;28;20518;-68
2021/03/24 07:36:43;;;;;;;18.23;12.33;;;4.40;1.00;;;;;;5090103;28;20887;-68
2021/03/24 07:39:36;;;;;;;18.50;11.80;;;4.40;1.00;;;;;;5090421;28;20472;-67
2021/03/24 07:42:43;;;;;;;18.60;13.17;;;4.50;1.00;;;;;;5090107;28;20519;-67
2021/03/24 07:45:35;;;;;;;21.97;12.30;;;4.50;1.00;;;;;;5028235;28;20529;-67
2021/03/24 07:48:17;;;;;;;22.93;14.70;;;4.60;1.00;;;;;;5093744;28;20570;-66
2021/03/24 07:50:51;;;;;;;20.57;13.03;;;4.70;1.00;;;;;;5093896;28;20445;-66
2021/03/24 07:53:30;;;;;;;17.17;12.27;;;4.80;1.00;;;;;;5094425;28;20528;-67
2021/03/24 07:56:08;;;;;;;22.00;13.00;;;4.80;1.00;;;;;;5093410;28;20877;-66
2021/03/24 07:59:01;;;;;;;19.63;13.30;;;5.00;1.00;;;;;;5102766;28;20446;-67
2021/03/24 08:01:36;;;;;;;20.30;13.60;;;5.10;1.00;;;;;;5095718;28;20443;-67
2021/03/24 08:04:24;;;;;;;24.53;12.83;;;5.30;99.90;;;;;;5093727;28;20533;-67
2021/03/24 08:07:02;;;;;;;19.17;13.17;;;5.40;99.90;;;;;;5076638;28;20536;-67
2021/03/24 08:09:41;;;;;;;17.77;11.07;;;5.50;1.00;;;;;;5073367;28;20494;-68
2021/03/24 08:12:18;;;;;;;22.03;12.00;;;5.70;1.00;;;;;;5080808;28;20542;-68
2021/03/24 08:15:16;;;;;;;24.57;13.60;;;5.80;99.90;;;;;;5092784;28;20490;-67
2021/03/24 08:17:50;;;;;;;23.30;13.93;;;5.90;1.00;;;;;;5093348;28;20466;-69
2021/03/24 08:20:29;;;;;;;20.57;13.23;;;6.10;99.90;;;;;;5093971;28;20484;-68
2021/03/24 08:23:23;;;;;;;18.57;12.30;;;6.20;99.90;;;;;;5093110;28;20444;-68
2021/03/24 08:26:17;;;;;;;22.47;12.87;;;6.30;45.90;;;;;;5093044;28;20451;-67
2021/03/24 08:28:58;;;;;;;17.97;11.37;;;6.30;1.00;;;;;;5093050;28;20487;-67
2021/03/24 08:31:51;;;;;;;22.07;11.00;;;6.40;1.00;;;;;;5093117;28;20991;-68
2021/03/24 08:34:28;;;;;;;22.33;12.60;;;6.50;1.00;;;;;;5093171;28;20472;-67
2021/03/24 08:37:35;;;;;;;24.47;10.83;;;6.70;99.90;;;;;;5093035;28;20447;-67
2021/03/24 08:40:31;;;;;;;19.07;11.93;;;6.70;68.30;;;;;;5091894;28;20532;-68
2021/03/24 08:43:36;;;;;;;21.77;11.43;;;6.90;1.00;;;;;;5093044;28;20444;-69
2021/03/24 08:46:12;;;;;;;17.60;11.20;;;7.00;1.00;;;;;;5068102;28;20460;-68
2021/03/24 08:48:44;;;;;;;18.83;11.40;;;7.20;99.90;;;;;;5092946;28;21051;-67
2021/03/24 08:51:18;;;;;;;19.27;11.30;;;7.20;99.90;;;;;;5093330;28;20523;-67
2021/03/24 08:54:03;;;;;;;18.57;11.47;;;7.30;99.90;;;;;;5092439;28;20528;-67
2021/03/24 08:56:41;;;;;;;16.87;11.20;;;7.40;1.00;;;;;;5092784;28;20507;-69
2021/03/24 08:59:19;;;;;;;21.40;10.30;;;7.50;99.90;;;;;;5092539;28;20483;-69
2021/03/24 09:02:08;;;;;;;22.53;12.80;;;7.60;99.90;;;;;;5092411;28;20448;-67
2021/03/24 09:05:07;;;;;;;18.87;11.07;;;7.70;1.00;;;;;;5092204;28;20565;-68
2021/03/24 09:07:47;;;;;;;16.43;11.37;;;7.80;1.00;;;;;;5083496;28;20450;-68
2021/03/24 09:10:32;;;;;;;17.30;9.90;;;7.80;99.90;;;;;;5072153;28;20469;-67
2021/03/24 09:13:06;;;;;;;21.63;12.13;;;7.80;99.90;;;;;;5071778;28;20768;-68
2021/03/24 09:15:38;;;;;;;19.30;11.77;;;8.00;99.90;;;;;;5071808;28;20533;-68
2021/03/24 09:18:15;;;;;;;17.70;11.30;;;8.00;99.90;;;;;;5071950;28;20468;-68
2021/03/24 09:21:16;;;;;;;18.47;13.43;;;8.10;99.90;;;;;;5071512;28;20536;-67
2021/03/24 09:24:30;;;;;;;16.00;11.13;;;8.20;98.30;;;;;;5080820;28;20455;-68
2021/03/24 09:27:25;;;;;;;17.30;11.83;;;8.40;55.60;;;;;;5091752;28;20885;-68
2021/03/24 09:30:14;;;;;;;25.00;12.33;;;8.70;10.60;;;;;;5091699;28;20515;-68
2021/03/24 09:32:48;;;;;;;15.13;11.30;;;8.90;1.00;;;;;;5091337;28;20556;-67
2021/03/24 09:35:34;;;;;;;18.10;11.90;;;8.80;1.00;;;;;;5091672;28;20531;-68
2021/03/24 09:38:05;;;;;;;18.03;10.77;;;8.90;1.00;;;;;;5091488;28;20452;-68
2021/03/24 09:40:37;;;;;;;18.40;11.23;;;9.00;1.00;;;;;;5092043;28;20771;-68
2021/03/24 09:43:14;;;;;;;17.73;12.53;;;9.10;1.00;;;;;;5091278;28;20494;-68
2021/03/24 09:45:43;;;;;;;20.87;10.83;;;9.10;1.00;;;;;;5090822;28;20452;-68
2021/03/24 09:48:14;;;;;;;16.90;11.80;;;9.20;1.00;;;;;;5091716;28;20572;-68
2021/03/24 09:50:55;;;;;;;20.70;12.17;;;9.30;1.00;;;;;;5091373;28;20440;-67
2021/03/24 09:53:25;;;;;;;21.20;12.70;;;9.20;1.00;;;;;;5091670;28;20441;-67
2021/03/24 09:56:02;;;;;;;18.67;12.70;;;9.30;1.00;;;;;;5090831;28;20452;-67
2021/03/24 09:58:56;;;;;;;15.23;11.50;;;9.20;1.00;;;;;;5091557;28;20860;-67
2021/03/24 10:01:47;;;;;;;19.10;12.50;;;9.30;1.00;;;;;;5091792;28;20444;-67
2021/03/24 10:04:38;;;;;;;17.77;11.60;;;9.40;1.00;;;;;;5091269;28;20525;-68
2021/03/24 10:07:10;;;;;;;14.27;10.13;;;9.70;1.00;;;;;;5068787;28;20826;-67
2021/03/24 10:09:42;;;;;;;21.43;14.33;;;9.70;1.00;;;;;;5070826;28;20482;-67
2021/03/24 10:12:24;;;;;;;18.60;11.60;;;10.00;1.00;;;;;;5078392;28;20437;-67
2021/03/24 10:15:01;;;;;;;21.03;12.20;;;10.10;1.00;;;;;;5090638;28;20452;-67
2021/03/24 10:17:33;;;;;;;16.07;11.23;;;10.00;1.00;;;;;;5091122;28;20586;-67
2021/03/24 10:20:08;;;;;;;14.90;11.23;;;10.20;1.00;;;;;;5090681;28;20495;-68
2021/03/24 10:22:38;;;;;;;15.80;10.53;;;10.20;1.00;;;;;;5091498;28;20459;-67
2021/03/24 10:25:11;;;;;;;16.27;12.53;;;10.40;1.00;;;;;;5090550;28;20480;-67
2021/03/24 10:27:45;;;;;;;23.30;11.60;;;10.40;1.00;;;;;;5091083;28;20563;-68
2021/03/24 10:30:27;;;;;;;15.17;10.67;;;10.50;99.90;;;;;;5091777;28;20805;-68
2021/03/24 10:33:04;;;;;;;11.70;9.20;;;10.70;99.90;;;;;;5094434;28;21004;-71
2021/03/24 10:35:36;;;;;;;15.90;10.63;;;10.90;99.90;;;;;;5099595;28;20484;-69
2021/03/24 10:38:13;;;;;;;15.93;10.27;;;10.90;99.90;;;;;;5091082;28;20490;-68
2021/03/24 10:40:43;;;;;;;17.77;11.10;;;10.90;99.90;;;;;;5090538;28;20980;-68
2021/03/24 10:43:14;;;;;;;17.03;10.30;;;10.80;99.90;;;;;;5091150;28;20441;-68
2021/03/24 10:45:45;;;;;;;14.97;10.80;;;11.00;99.90;;;;;;5090073;28;20476;-68
2021/03/24 10:48:19;;;;;;;14.43;9.73;;;11.10;99.90;;;;;;5090725;28;20563;-68
2021/03/24 10:50:52;;;;;;;16.17;9.83;;;11.10;99.90;;;;;;5089751;28;20459;-67
2021/03/24 10:53:23;;;;;;;14.93;9.30;;;11.10;99.90;;;;;;5090830;28;20821;-68
2021/03/24 10:56:05;;;;;;;14.40;9.53;;;11.10;99.90;;;;;;5089941;28;20534;-68
2021/03/24 10:58:48;;;;;;;17.60;10.43;;;11.20;99.90;;;;;;5090447;28;20858;-68
2021/03/24 11:01:18;;;;;;;17.93;11.37;;;11.50;99.90;;;;;;5090708;28;20532;-68
2021/03/24 11:04:20;;;;;;;14.80;9.67;;;11.80;99.90;;;;;;5089886;28;20921;-68
2021/03/24 11:06:54;;;;;;;16.77;10.73;;;11.90;99.90;;;;;;5073790;28;20487;-67
2021/03/24 11:09:24;;;;;;;21.37;11.33;;;12.10;99.90;;;;;;5070526;28;20515;-67
2021/03/24 11:11:54;;;;;;;17.53;12.10;;;12.20;99.90;;;;;;5069801;28;20914;-67
2021/03/24 11:14:23;;;;;;;18.13;11.70;;;12.20;99.90;;;;;;5070098;28;20442;-67
2021/03/24 11:16:52;;;;;;;16.20;12.13;;;11.90;99.90;;;;;;5069893;28;20956;-67
2021/03/24 11:19:27;;;;;;;15.73;12.00;;;12.00;99.90;;;;;;5070442;28;20457;-68
2021/03/24 11:22:19;;;;;;;28.67;13.43;;;12.20;99.90;;;;;;5073460;28;20833;-67
2021/03/24 11:24:54;;;;;;;17.13;11.03;;;12.20;99.90;;;;;;5073956;28;20981;-67
2021/03/24 11:27:25;;;;;;;17.63;11.17;;;12.30;99.90;;;;;;5074565;28;20969;-69
2021/03/24 11:30:07;;;;;;;16.63;10.57;;;12.60;99.90;;;;;;5073717;28;20529;-69
2021/03/24 11:32:40;;;;;;;12.33;9.47;;;13.00;99.90;;;;;;5074112;28;20546;-69
2021/03/24 11:35:21;;;;;;;16.60;10.70;;;12.90;99.90;;;;;;5073934;28;20864;-68
2021/03/24 11:37:55;;;;;;;14.87;9.47;;;12.90;99.90;;;;;;5073563;28;20477;-68
2021/03/24 11:40:43;;;;;;;17.67;11.33;;;12.80;99.90;;;;;;5074357;28;20495;-69
2021/03/24 11:43:18;;;;;;;12.80;10.27;;;13.20;99.90;;;;;;5082116;28;20472;-69
2021/03/24 11:45:45;;;;;;;17.73;11.13;;;13.70;99.90;;;;;;5093221;28;20462;-69
2021/03/24 11:48:38;;;;;;;13.83;10.30;;;13.40;99.90;;;;;;5093845;28;20448;-68
2021/03/24 11:51:18;;;;;;;19.53;10.27;;;13.50;99.90;;;;;;5093880;28;20463;-69
2021/03/24 11:54:00;;;;;;;15.83;10.93;;;13.50;99.90;;;;;;5093003;28;20845;-68
2021/03/24 11:56:46;;;;;;;18.33;12.17;;;13.30;99.90;;;;;;5093826;28;20480;-68
2021/03/24 11:59:19;;;;;;;14.57;10.43;;;13.40;99.90;;;;;;5093721;28;20480;-67
2021/03/24 12:02:01;;;;;;;16.50;10.40;;;13.60;99.90;;;;;;5092949;28;20452;-67
2021/03/24 12:04:48;;;;;;;18.70;11.73;;;13.40;99.90;;;;;;5093417;28;20627;-68
2021/03/24 12:07:25;;;;;;;17.90;11.80;;;13.60;99.90;;;;;;5086955;28;20528;-68
2021/03/24 12:10:03;;;;;;;19.47;12.53;;;13.60;99.90;;;;;;5072846;28;20491;-69
2021/03/24 12:12:29;;;;;;;15.67;11.20;;;13.60;99.90;;;;;;5073365;28;21062;-68
2021/03/24 12:15:14;;;;;;;15.17;12.57;;;13.70;99.90;;;;;;5072617;28;20532;-68
2021/03/24 12:17:41;;;;;;;18.37;11.57;;;13.70;99.90;;;;;;5072775;28;20564;-68
2021/03/24 12:20:10;;;;;;;20.43;12.70;;;13.70;99.90;;;;;;5072969;28;20488;-68
2021/03/24 12:22:39;;;;;;;19.57;11.17;;;13.50;99.90;;;;;;5072790;28;20524;-67
2021/03/24 12:25:16;;;;;;;14.30;10.90;;;13.70;99.90;;;;;;5072252;28;20450;-68
2021/03/24 12:27:44;;;;;;;14.20;10.40;;;13.90;99.90;;;;;;5082348;28;20440;-67
2021/03/24 12:30:29;;;;;;;21.70;12.27;;;14.00;99.90;;;;;;5073504;28;20568;-69
2021/03/24 12:33:07;;;;;;;15.17;11.53;;;14.40;99.90;;;;;;5072099;28;21050;-68
2021/03/24 12:35:35;;;;;;;19.10;12.67;;;14.30;99.90;;;;;;5086538;28;20448;-70
2021/03/24 12:38:06;;;;;;;17.33;11.97;;;14.40;99.90;;;;;;5072321;28;20945;-69
2021/03/24 12:40:33;;;;;;;20.53;11.63;;;14.30;99.90;;;;;;5084463;28;20548;-68
2021/03/24 12:43:08;;;;;;;13.63;11.27;;;14.50;99.90;;;;;;5091952;28;20884;-68
2021/03/24 12:45:38;;;;;;;13.70;11.23;;;14.60;99.90;;;;;;5089403;28;20455;-69
2021/03/24 12:48:08;;;;;;;15.90;10.90;;;14.90;99.90;;;;;;5083349;28;20951;-69
2021/03/24 12:50:40;;;;;;;15.20;11.07;;;14.90;99.90;;;;;;5081017;28;20523;-68
2021/03/24 12:53:25;;;;;;;16.33;11.10;;;15.00;99.90;;;;;;5081946;28;20469;-68
2021/03/24 12:56:02;;;;;;;14.17;11.50;;;15.60;99.90;;;;;;5072379;28;20485;-68
2021/03/24 12:58:38;;;;;;;18.57;13.63;;;15.20;99.90;;;;;;5072327;28;20481;-69
2021/03/24 13:01:19;;;;;;;15.47;11.80;;;14.90;99.90;;;;;;5087174;28;20488;-68
2021/03/24 13:04:24;;;;;;;20.50;10.77;;;15.00;99.90;;;;;;5090094;28;20932;-68
2021/03/24 13:07:32;;;;;;;15.37;12.47;;;15.00;99.90;;;;;;5072481;28;20476;-68
2021/03/24 13:10:37;;;;;;;16.60;10.30;;;15.10;99.90;;;;;;5058013;28;20888;-68
2021/03/24 13:13:13;;;;;;;17.93;12.10;;;15.60;99.90;;;;;;5056815;28;20488;-68
2021/03/24 13:15:48;;;;;;;18.73;12.00;;;15.40;99.90;;;;;;5088776;28;20528;-68
2021/03/24 13:18:26;;;;;;;15.00;10.70;;;15.40;99.90;;;;;;5085242;28;20815;-69
2021/03/24 13:21:08;;;;;;;14.50;10.30;;;15.40;99.90;;;;;;5080870;28;20483;-68
2021/03/24 13:23:45;;;;;;;15.37;11.43;;;15.70;99.90;;;;;;5072228;28;20519;-68